createdAt,value
2018-07-06T00:02:25.521Z,69.57
2018-07-06T00:05:04.803Z,69.76
2018-07-06T00:07:44.031Z,69.65
2018-07-06T00:10:23.151Z,69.69
2018-07-06T00:13:02.400Z,69.21
2018-07-06T00:15:41.652Z,69.87
2018-07-06T00:18:20.708Z,70.07
2018-07-06T00:20:59.795Z,70.45
2018-07-06T00:23:38.962Z,70.60
2018-07-06T00:26:18.199Z,70.23
2018-07-06T00:28:57.392Z,70.34
2018-07-06T00:31:36.566Z,69.94
2018-07-06T00:34:15.814Z,69.40
2018-07-06T00:36:55.022Z,69.67
2018-07-06T00:39:34.290Z,69.57
2018-07-06T00:42:13.570Z,69.50
2018-07-06T00:44:52.685Z,69.26
2018-07-06T00:47:31.907Z,68.98
2018-07-06T00:50:11.051Z,69.07
2018-07-06T00:52:50.187Z,69.13
2018-07-06T00:55:29.204Z,69.52
2018-07-06T00:58:08.498Z,69.64
2018-07-06T01:00:47.587Z,69.34
2018-07-06T01:03:26.785Z,69.43
2018-07-06T01:06:05.900Z,69.12
2018-07-06T01:08:45.198Z,69.07
2018-07-06T01:11:24.458Z,69.53
2018-07-06T01:14:03.670Z,69.39
2018-07-06T01:16:42.757Z,69.50
2018-07-06T01:19:21.902Z,69.15
2018-07-06T01:22:01.100Z,69.12
2018-07-06T01:24:40.430Z,68.94
2018-07-06T01:27:19.628Z,68.80
2018-07-06T01:29:58.840Z,68.60
2018-07-06T01:32:38.156Z,68.44
2018-07-06T01:35:17.425Z,68.45
2018-07-06T01:37:56.783Z,68.61
2018-07-06T01:40:36.062Z,68.56
2018-07-06T01:43:15.223Z,68.39
2018-07-06T01:45:54.459Z,68.37
2018-07-06T01:48:33.646Z,68.56
2018-07-06T01:51:12.935Z,68.68
2018-07-06T01:53:51.974Z,68.80
2018-07-06T01:56:31.153Z,68.94
2018-07-06T01:59:10.408Z,68.93
2018-07-06T02:01:49.640Z,69.01
2018-07-06T02:04:29.787Z,69.00
2018-07-06T02:07:08.817Z,69.34
2018-07-06T02:09:47.934Z,69.43
2018-07-06T02:12:27.216Z,69.62
2018-07-06T02:15:06.550Z,69.63
2018-07-06T02:17:46.063Z,69.67
2018-07-06T02:20:25.365Z,69.51
2018-07-06T02:23:04.387Z,69.48
2018-07-06T02:25:43.628Z,69.44
2018-07-06T02:28:22.824Z,69.39
2018-07-06T02:31:01.956Z,69.39
2018-07-06T02:33:41.184Z,69.28
2018-07-06T02:36:20.364Z,69.44
2018-07-06T02:38:59.784Z,69.42
2018-07-06T02:41:38.953Z,69.10
2018-07-06T02:44:18.050Z,69.40
2018-07-06T02:46:57.290Z,69.54
2018-07-06T02:49:36.428Z,69.70
2018-07-06T02:52:15.579Z,69.82
2018-07-06T02:54:54.776Z,69.55
2018-07-06T02:57:34.064Z,69.46
2018-07-06T03:00:13.237Z,69.49
2018-07-06T03:02:52.368Z,69.43
2018-07-06T03:05:31.534Z,69.67
2018-07-06T03:08:10.727Z,69.68
2018-07-06T03:10:49.938Z,69.51
2018-07-06T03:13:29.171Z,69.68
2018-07-06T03:16:08.344Z,69.90
2018-07-06T03:18:47.771Z,69.77
2018-07-06T03:21:27.322Z,69.74
2018-07-06T03:24:06.786Z,69.66
2018-07-06T03:26:46.027Z,69.54
2018-07-06T03:29:25.110Z,69.27
2018-07-06T03:32:04.287Z,69.21
2018-07-06T03:34:43.597Z,69.55
2018-07-06T03:37:22.964Z,69.62
2018-07-06T03:40:02.144Z,69.50
2018-07-06T03:42:41.357Z,69.60
2018-07-06T03:45:20.453Z,69.57
2018-07-06T03:47:59.625Z,69.28
2018-07-06T03:50:38.724Z,69.65
2018-07-06T03:53:17.955Z,70.44
2018-07-06T03:55:57.158Z,70.72
2018-07-06T03:58:36.255Z,71.25
2018-07-06T04:01:15.452Z,70.95
2018-07-06T04:03:54.592Z,70.51
2018-07-06T04:06:33.712Z,70.55
2018-07-06T04:09:13.101Z,70.68
2018-07-06T04:11:52.328Z,70.66
2018-07-06T04:14:31.446Z,70.84
2018-07-06T04:17:10.573Z,70.48
2018-07-06T04:19:49.799Z,70.16
2018-07-06T04:22:29.177Z,70.00
2018-07-06T04:25:08.486Z,70.06
2018-07-06T04:27:47.665Z,70.57
2018-07-06T04:30:26.835Z,70.87
2018-07-06T04:33:06.186Z,71.09
2018-07-06T04:35:45.419Z,70.72
2018-07-06T04:38:24.690Z,70.37
2018-07-06T04:41:03.958Z,70.27
2018-07-06T04:43:43.038Z,70.30
2018-07-06T04:46:22.302Z,70.63
2018-07-06T04:49:01.610Z,70.04
2018-07-06T04:51:40.963Z,69.97
2018-07-06T04:54:20.160Z,69.87
2018-07-06T04:56:59.358Z,69.70
2018-07-06T04:59:38.527Z,70.30
2018-07-06T05:02:17.666Z,70.52
2018-07-06T05:04:56.826Z,70.95
2018-07-06T05:07:36.150Z,70.05
2018-07-06T05:10:15.297Z,70.46
2018-07-06T05:12:54.564Z,71.33
2018-07-06T05:15:33.788Z,71.77
2018-07-06T05:18:13.158Z,70.17
2018-07-06T05:20:52.357Z,70.54
2018-07-06T05:23:31.551Z,71.42
2018-07-06T05:26:10.875Z,70.40
2018-07-06T05:28:50.249Z,70.79
2018-07-06T05:31:29.424Z,70.62
2018-07-06T05:34:08.554Z,70.60
2018-07-06T05:36:47.638Z,70.98
2018-07-06T05:39:26.811Z,70.47
2018-07-06T05:42:05.893Z,70.84
2018-07-06T05:44:45.041Z,71.18
2018-07-06T05:47:24.029Z,71.51
2018-07-06T05:50:03.227Z,72.18
2018-07-06T05:52:42.415Z,72.73
2018-07-06T05:55:21.772Z,72.56
2018-07-06T05:58:01.079Z,72.72
2018-07-06T06:00:40.279Z,72.83
2018-07-06T06:03:19.553Z,72.92
2018-07-06T06:05:58.719Z,73.09
2018-07-06T06:08:25.574Z,72.44
2018-07-06T06:10:53.008Z,73.07
2018-07-06T06:13:20.515Z,72.60
2018-07-06T06:15:47.910Z,72.58
2018-07-06T06:18:15.403Z,72.62
2018-07-06T06:20:42.827Z,72.25
2018-07-06T06:23:10.803Z,72.05
2018-07-06T06:25:38.210Z,71.45
2018-07-06T06:28:05.675Z,71.87
2018-07-06T06:30:33.111Z,71.54
2018-07-06T06:33:00.566Z,71.40
2018-07-06T06:35:28.010Z,70.85
2018-07-06T06:37:55.474Z,69.90
2018-07-06T06:40:22.918Z,70.11
2018-07-06T06:42:50.438Z,70.07
2018-07-06T06:45:17.929Z,69.82
2018-07-06T06:47:45.382Z,69.25
2018-07-06T06:50:12.941Z,69.08
2018-07-06T06:55:14.225Z,68.50
2018-07-06T06:57:41.732Z,67.53
2018-07-06T07:00:09.165Z,67.61
2018-07-06T07:02:36.622Z,67.41
2018-07-06T07:05:04.084Z,67.51
2018-07-06T07:07:31.660Z,67.20
2018-07-06T07:09:59.100Z,67.26
2018-07-06T07:12:26.557Z,66.46
2018-07-06T07:14:54.016Z,66.40
2018-07-06T07:17:21.426Z,66.00
2018-07-06T07:19:48.861Z,66.33
2018-07-06T07:22:16.331Z,66.18
2018-07-06T07:24:43.771Z,66.25
2018-07-06T07:27:11.296Z,65.86
2018-07-06T07:29:38.867Z,65.32
2018-07-06T07:32:06.539Z,66.16
2018-07-06T07:34:34.031Z,65.23
2018-07-06T07:37:01.456Z,65.25
2018-07-06T07:39:28.847Z,64.89
2018-07-06T07:41:56.468Z,65.18
2018-07-06T07:44:24.042Z,65.26
2018-07-06T07:46:51.516Z,65.69
2018-07-06T07:49:19.079Z,65.62
2018-07-06T07:51:58.263Z,65.56
2018-07-06T07:54:25.897Z,65.29
2018-07-06T07:56:53.369Z,66.31
2018-07-06T07:59:21.300Z,67.33
2018-07-06T08:01:48.723Z,67.22
2018-07-06T08:04:16.163Z,66.63
2018-07-06T08:06:43.653Z,66.50
2018-07-06T08:09:11.102Z,66.69
2018-07-06T08:11:38.519Z,67.16
2018-07-06T08:14:05.951Z,67.67
2018-07-06T08:16:33.365Z,67.37
2018-07-06T08:19:00.810Z,68.27
2018-07-06T08:21:28.312Z,68.67
2018-07-06T08:23:55.729Z,67.77
2018-07-06T08:26:24.511Z,69.02
2018-07-06T08:28:51.982Z,69.29
2018-07-06T08:31:19.420Z,69.63
2018-07-06T08:33:46.877Z,69.43
2018-07-06T08:36:14.439Z,69.39
2018-07-06T08:38:42.012Z,68.68
2018-07-06T08:41:09.460Z,66.77
2018-07-06T08:43:37.039Z,65.97
2018-07-06T08:46:04.518Z,64.79
2018-07-06T08:48:32.452Z,64.08
2018-07-06T08:50:59.921Z,63.49
2018-07-06T08:53:27.446Z,63.59
2018-07-06T08:55:54.971Z,63.21
2018-07-06T08:58:22.532Z,63.89
2018-07-06T09:00:49.945Z,63.18
2018-07-06T09:03:17.377Z,62.92
2018-07-06T09:05:44.811Z,62.82
2018-07-06T09:08:12.214Z,62.54
2018-07-06T09:10:39.679Z,62.57
2018-07-06T09:13:07.182Z,62.58
2018-07-06T09:15:34.575Z,62.08
2018-07-06T09:18:02.047Z,62.06
2018-07-06T09:20:29.470Z,63.03
2018-07-06T09:22:57.444Z,62.25
2018-07-06T09:25:25.109Z,62.10
2018-07-06T09:27:52.530Z,61.07
2018-07-06T09:30:20.032Z,59.90
2018-07-06T09:32:47.460Z,60.11
2018-07-06T09:35:16.089Z,60.55
2018-07-06T09:37:43.595Z,59.94
2018-07-06T09:40:11.088Z,59.34
2018-07-06T09:42:38.556Z,59.08
2018-07-06T09:45:06.019Z,59.62
2018-07-06T09:47:33.524Z,60.29
2018-07-06T09:50:01.019Z,60.32
2018-07-06T09:52:28.463Z,60.30
2018-07-06T09:54:56.220Z,60.58
2018-07-06T09:57:23.715Z,60.67
2018-07-06T09:59:51.174Z,60.67
2018-07-06T10:02:19.269Z,60.60
2018-07-06T10:04:46.790Z,60.28
2018-07-06T10:07:14.261Z,59.86
2018-07-06T10:09:41.808Z,59.79
2018-07-06T10:12:10.305Z,59.79
2018-07-06T10:14:37.838Z,59.80
2018-07-06T10:17:05.315Z,60.17
2018-07-06T10:19:32.862Z,59.68
2018-07-06T10:22:00.357Z,58.86
2018-07-06T10:24:27.789Z,58.24
2018-07-06T10:26:55.284Z,57.55
2018-07-06T10:29:22.678Z,56.34
2018-07-06T10:31:51.054Z,55.35
2018-07-06T10:34:18.652Z,55.44
2018-07-06T10:36:46.096Z,54.76
2018-07-06T10:39:13.562Z,54.46
2018-07-06T10:41:41.049Z,53.10
2018-07-06T10:44:08.565Z,51.99
2018-07-06T10:46:35.618Z,51.59
2018-07-06T10:49:02.615Z,51.90
2018-07-06T10:51:29.639Z,51.38
2018-07-06T10:53:56.684Z,51.08
2018-07-06T10:56:23.743Z,50.80
2018-07-06T10:58:50.818Z,49.98
2018-07-06T11:01:17.817Z,48.72
2018-07-06T11:03:45.257Z,48.60
2018-07-06T11:06:12.790Z,47.84
2018-07-06T11:08:40.368Z,47.54
2018-07-06T11:11:07.962Z,45.92
2018-07-06T11:13:34.958Z,45.57
2018-07-06T11:16:01.958Z,43.31
2018-07-06T11:18:28.972Z,42.49
2018-07-06T11:20:56.368Z,41.30
2018-07-06T11:23:23.796Z,41.31
2018-07-06T11:25:51.236Z,41.16
2018-07-06T11:28:18.679Z,39.87
2018-07-06T11:30:46.341Z,38.92
2018-07-06T11:33:17.703Z,39.04
2018-07-06T11:35:44.768Z,39.64
2018-07-06T11:38:11.950Z,39.86
2018-07-06T11:40:38.772Z,41.29
2018-07-06T11:43:05.755Z,41.96
2018-07-06T11:45:32.717Z,41.89
2018-07-06T11:47:59.766Z,40.49
2018-07-06T11:50:26.801Z,39.81
2018-07-06T11:52:53.745Z,39.41
2018-07-06T11:55:21.215Z,40.04
2018-07-06T11:57:48.670Z,39.78
2018-07-06T12:00:16.254Z,39.71
2018-07-06T12:02:43.240Z,39.98
2018-07-06T12:05:10.206Z,39.84
2018-07-06T12:07:37.206Z,40.20
2018-07-06T12:10:04.190Z,40.72
2018-07-06T12:12:31.319Z,41.68
2018-07-06T12:14:58.452Z,41.32
2018-07-06T12:17:25.618Z,41.24
2018-07-06T12:19:52.777Z,40.72
2018-07-06T12:22:19.868Z,40.56
2018-07-06T12:24:46.892Z,39.56
2018-07-06T12:27:13.889Z,39.96
2018-07-06T12:29:41.065Z,40.62
2018-07-06T12:32:08.043Z,40.39
2018-07-06T12:34:35.131Z,39.80
2018-07-06T12:37:02.153Z,39.34
2018-07-06T12:39:29.839Z,39.57
2018-07-06T12:41:57.012Z,39.70
2018-07-06T12:44:24.240Z,39.06
2018-07-06T12:46:51.250Z,38.91
2018-07-06T12:49:18.405Z,39.66
2018-07-06T12:51:45.419Z,40.35
2018-07-06T12:54:12.503Z,39.64
2018-07-06T12:56:40.204Z,40.19
2018-07-06T12:59:07.161Z,41.00
2018-07-06T13:01:34.710Z,41.05
2018-07-06T13:04:02.172Z,41.44
2018-07-06T13:06:29.687Z,42.66
2018-07-06T13:08:57.142Z,44.46
2018-07-06T13:11:24.573Z,44.70
2018-07-06T13:13:52.072Z,44.15
2018-07-06T13:16:19.501Z,44.44
2018-07-06T13:18:46.937Z,45.22
2018-07-06T13:21:14.502Z,45.70
2018-07-06T13:23:42.088Z,44.90
2018-07-06T13:26:09.591Z,44.35
2018-07-06T13:28:37.085Z,44.50
2018-07-06T13:31:04.543Z,44.94
2018-07-06T13:33:31.991Z,43.75
2018-07-06T13:35:59.435Z,43.65
2018-07-06T13:38:26.870Z,43.75
2018-07-06T13:40:54.387Z,43.35
2018-07-06T13:43:21.868Z,42.18
2018-07-06T13:45:48.909Z,40.96
2018-07-06T13:48:16.054Z,41.06
2018-07-06T13:50:43.092Z,43.04
2018-07-06T13:53:10.091Z,43.80
2018-07-06T13:55:37.293Z,44.46
2018-07-06T13:58:04.957Z,45.20
2018-07-06T14:00:32.564Z,46.37
2018-07-06T14:03:00.031Z,48.83
2018-07-06T14:05:27.528Z,48.84
2018-07-06T14:07:55.013Z,49.76
2018-07-06T14:10:22.506Z,50.43
2018-07-06T14:12:49.956Z,52.43
2018-07-06T14:15:17.642Z,52.76
2018-07-06T14:17:45.099Z,53.30
2018-07-06T14:20:12.716Z,52.57
2018-07-06T14:22:40.167Z,52.40
2018-07-06T14:25:07.920Z,51.86
2018-07-06T14:27:36.190Z,50.83
2018-07-06T14:30:04.806Z,51.34
2018-07-06T14:32:32.731Z,52.02
2018-07-06T14:35:00.278Z,52.24
2018-07-06T14:37:27.651Z,53.07
2018-07-06T14:39:55.077Z,54.72
2018-07-06T14:42:22.699Z,54.45
2018-07-06T14:44:50.172Z,53.53
2018-07-06T14:47:17.717Z,51.58
2018-07-06T14:49:45.256Z,50.57
2018-07-06T14:52:12.718Z,49.07
2018-07-06T14:54:40.134Z,48.43
2018-07-06T14:57:07.601Z,47.69
2018-07-06T14:59:35.374Z,46.51
2018-07-06T15:02:02.948Z,45.08
2018-07-06T15:04:30.420Z,44.87
2018-07-06T15:06:57.921Z,44.31
2018-07-06T15:09:25.423Z,43.25
2018-07-06T15:11:52.890Z,43.09
2018-07-06T15:14:20.444Z,44.73
2018-07-06T15:16:47.923Z,42.74
2018-07-06T15:19:16.248Z,41.56
2018-07-06T15:21:43.710Z,41.96
2018-07-06T15:24:11.368Z,41.94
2018-07-06T15:26:38.804Z,42.42
2018-07-06T15:29:06.363Z,42.07
2018-07-06T15:31:33.847Z,42.25
2018-07-06T15:34:01.319Z,41.35
2018-07-06T15:36:28.785Z,42.03
2018-07-06T15:38:56.235Z,42.45
2018-07-06T15:41:23.702Z,42.46
2018-07-06T15:43:51.268Z,42.66
2018-07-06T15:46:18.718Z,43.36
2018-07-06T15:48:46.165Z,45.01
2018-07-06T15:51:13.683Z,48.25
2018-07-06T15:53:41.183Z,49.98
2018-07-06T15:56:08.662Z,50.79
2018-07-06T15:58:36.238Z,51.94
2018-07-06T16:01:03.736Z,52.10
2018-07-06T16:03:31.268Z,51.62
2018-07-06T16:05:58.745Z,52.97
2018-07-06T16:08:26.382Z,55.19
2018-07-06T16:10:53.849Z,55.74
2018-07-06T16:13:21.376Z,55.16
2018-07-06T16:15:48.869Z,54.85
2018-07-06T16:18:16.306Z,53.24
2018-07-06T16:20:43.790Z,51.94
2018-07-06T16:23:11.283Z,51.65
2018-07-06T16:25:38.784Z,51.33
2018-07-06T16:28:06.263Z,50.68
2018-07-06T16:30:34.265Z,50.76
2018-07-06T16:33:01.813Z,51.97
2018-07-06T16:35:29.313Z,51.75
2018-07-06T16:37:56.882Z,51.01
2018-07-06T16:40:25.538Z,51.18
2018-07-06T16:42:53.105Z,50.65
2018-07-06T16:45:20.654Z,50.51
2018-07-06T16:47:48.473Z,51.77
2018-07-06T16:50:15.978Z,53.97
2018-07-06T16:52:43.569Z,55.84
2018-07-06T16:55:11.153Z,56.63
2018-07-06T16:57:38.636Z,56.32
2018-07-06T17:00:06.404Z,56.66
2018-07-06T17:02:34.756Z,57.05
2018-07-06T17:05:02.334Z,57.26
2018-07-06T17:07:30.409Z,57.65
2018-07-06T17:09:57.997Z,57.37
2018-07-06T17:12:25.695Z,57.24
2018-07-06T17:14:53.161Z,57.13
2018-07-06T17:17:20.672Z,56.76
2018-07-06T17:19:48.878Z,55.64
2018-07-06T17:22:16.477Z,55.24
2018-07-06T17:24:45.542Z,55.56
2018-07-06T17:27:13.033Z,56.21
2018-07-06T17:29:40.503Z,57.19
2018-07-06T17:32:08.677Z,57.83
2018-07-06T17:34:36.274Z,58.59
2018-07-06T17:37:03.804Z,58.58
2018-07-06T17:39:31.344Z,58.42
2018-07-06T17:41:59.017Z,58.17
2018-07-06T17:44:26.629Z,58.06
2018-07-06T17:46:54.063Z,57.83
2018-07-06T17:49:21.571Z,57.82
2018-07-06T17:51:49.068Z,57.38
2018-07-06T17:54:16.501Z,57.75
2018-07-06T17:56:44.005Z,58.07
2018-07-06T17:59:11.472Z,57.85
2018-07-06T18:01:39.064Z,57.61
2018-07-06T18:04:06.568Z,57.60
2018-07-06T18:06:34.006Z,56.98
2018-07-06T18:09:01.606Z,56.68
2018-07-06T18:11:29.621Z,56.70
2018-07-06T18:13:57.313Z,56.54
2018-07-06T18:16:24.876Z,56.07
2018-07-06T18:18:52.689Z,56.24
2018-07-06T18:21:20.203Z,56.06
2018-07-06T18:23:47.654Z,55.82
2018-07-06T18:26:15.131Z,55.48
2018-07-06T18:28:42.667Z,55.56
2018-07-06T18:31:10.111Z,55.76
2018-07-06T18:33:37.639Z,56.05
2018-07-06T18:36:05.172Z,56.35
2018-07-06T18:38:32.659Z,56.25
2018-07-06T18:41:00.063Z,56.40
2018-07-06T18:43:28.276Z,56.50
2018-07-06T18:45:55.776Z,56.27
2018-07-06T18:48:23.195Z,56.43
2018-07-06T18:50:50.671Z,56.49
2018-07-06T18:53:18.131Z,56.60
2018-07-06T18:55:45.674Z,57.15
2018-07-06T18:58:13.146Z,56.57
2018-07-06T19:00:40.590Z,56.78
2018-07-06T19:03:08.102Z,58.16
2018-07-06T19:05:35.552Z,57.99
2018-07-06T19:08:03.639Z,57.82
2018-07-06T19:10:31.267Z,57.91
2018-07-06T19:12:58.792Z,57.67
2018-07-06T19:15:26.404Z,56.97
2018-07-06T19:17:53.830Z,56.83
2018-07-06T19:20:21.337Z,56.80
2018-07-06T19:22:48.918Z,56.82
2018-07-06T19:25:16.311Z,56.98
2018-07-06T19:27:43.796Z,57.36
2018-07-06T19:30:11.295Z,57.65
2018-07-06T19:32:38.696Z,57.42
2018-07-06T19:35:06.208Z,57.09
2018-07-06T19:37:33.634Z,57.21
2018-07-06T19:40:01.130Z,57.74
2018-07-06T19:42:28.619Z,59.04
2018-07-06T19:44:56.225Z,59.40
2018-07-06T19:47:23.693Z,60.03
2018-07-06T19:49:51.142Z,60.56
2018-07-06T19:52:18.647Z,60.89
2018-07-06T19:54:46.140Z,61.69
2018-07-06T19:57:13.586Z,62.08
2018-07-06T19:59:41.103Z,62.62
2018-07-06T20:02:08.601Z,63.17
2018-07-06T20:04:36.406Z,63.93
2018-07-06T20:07:03.888Z,64.34
2018-07-06T20:09:31.330Z,64.52
2018-07-06T20:11:58.800Z,64.22
2018-07-06T20:14:26.378Z,64.00
2018-07-06T20:16:53.835Z,63.65
2018-07-06T20:19:21.563Z,63.50
2018-07-06T20:21:54.200Z,63.16
2018-07-06T20:24:21.758Z,63.18
2018-07-06T20:26:51.291Z,63.93
2018-07-06T20:29:18.962Z,64.47
2018-07-06T20:31:46.448Z,64.61
2018-07-06T20:34:13.913Z,64.29
2018-07-06T20:36:41.438Z,64.06
2018-07-06T20:39:08.928Z,63.80
2018-07-06T20:41:37.354Z,63.79
2018-07-06T20:44:04.841Z,64.14
2018-07-06T20:46:32.291Z,64.16
2018-07-06T20:48:59.752Z,64.53
2018-07-06T20:51:27.215Z,64.91
2018-07-06T20:53:54.692Z,64.87
2018-07-06T20:56:22.085Z,64.86
2018-07-06T20:58:49.511Z,64.81
2018-07-06T21:01:16.906Z,64.79
2018-07-06T21:03:44.412Z,64.75
2018-07-06T21:06:12.188Z,63.97
2018-07-06T21:08:39.589Z,63.50
2018-07-06T21:11:07.007Z,63.81
2018-07-06T21:13:34.447Z,63.92
2018-07-06T21:16:02.039Z,63.60
2018-07-06T21:18:29.437Z,63.78
2018-07-06T21:20:56.862Z,64.10
2018-07-06T21:23:24.320Z,63.88
2018-07-06T21:25:51.849Z,63.87
2018-07-06T21:28:19.298Z,63.93
2018-07-06T21:30:46.853Z,64.14
2018-07-06T21:33:14.305Z,64.01
2018-07-06T21:35:41.755Z,63.41
2018-07-06T21:38:09.204Z,62.22
2018-07-06T21:40:36.639Z,61.39
2018-07-06T21:43:04.225Z,61.23
2018-07-06T21:45:31.651Z,61.30
2018-07-06T21:47:59.147Z,61.32
2018-07-06T21:50:26.640Z,61.19
2018-07-06T21:52:54.136Z,61.05
2018-07-06T21:55:21.555Z,60.77
2018-07-06T21:57:49.004Z,61.16
2018-07-06T22:00:16.590Z,61.20
2018-07-06T22:02:44.052Z,60.95
2018-07-06T22:05:11.539Z,61.01
2018-07-06T22:07:38.972Z,61.38
2018-07-06T22:10:06.488Z,61.54
2018-07-06T22:12:33.889Z,61.54
2018-07-06T22:15:01.298Z,61.58
2018-07-06T22:17:28.721Z,61.79
2018-07-06T22:19:56.217Z,62.09
2018-07-06T22:22:23.677Z,62.39
2018-07-06T22:24:51.204Z,62.58
2018-07-06T22:27:18.643Z,62.60
2018-07-06T22:29:46.242Z,62.69
2018-07-06T22:32:14.364Z,62.90
2018-07-06T22:34:42.027Z,62.80
2018-07-06T22:37:09.504Z,63.03
2018-07-06T22:39:37.109Z,62.96
2018-07-06T22:42:04.600Z,63.06
2018-07-06T22:44:32.153Z,62.93
2018-07-06T22:46:59.596Z,62.92
2018-07-06T22:49:27.283Z,62.84
2018-07-06T22:51:54.765Z,63.08
2018-07-06T22:54:22.212Z,63.28
2018-07-06T22:56:49.655Z,63.38
2018-07-06T22:59:17.164Z,63.31
2018-07-06T23:01:44.656Z,63.22
2018-07-06T23:04:12.228Z,63.17
2018-07-06T23:06:39.681Z,63.60
2018-07-06T23:09:07.104Z,64.17
2018-07-06T23:11:34.590Z,64.39
2018-07-06T23:14:02.326Z,64.50
2018-07-06T23:16:29.780Z,64.49
2018-07-06T23:18:57.312Z,64.78
2018-07-06T23:21:24.737Z,65.09
2018-07-06T23:23:52.223Z,65.20
2018-07-06T23:26:19.612Z,65.50
2018-07-06T23:28:47.051Z,65.56
2018-07-06T23:31:14.485Z,65.58
2018-07-06T23:33:41.934Z,65.84
2018-07-06T23:36:09.504Z,66.07
2018-07-06T23:38:37.024Z,66.25
2018-07-06T23:41:04.514Z,66.50
2018-07-06T23:43:31.926Z,66.78
2018-07-06T23:45:59.468Z,66.91
2018-07-06T23:48:26.914Z,66.91
2018-07-06T23:50:54.393Z,66.98
2018-07-06T23:53:21.875Z,66.95
2018-07-06T23:55:49.421Z,67.19
2018-07-06T23:58:16.885Z,67.18
